Time;durP1;ratioP1;P1;durP2;ratioP2;P2;SDS_P1;SDS_P2;PMS_P1;PMS_P2;Temp;Humidity;BMP_temperature;BMP_pressure;BME280_temperature;BME280_humidity;BME280_pressure;Samples;Min_cycle;Max_cycle;Signal;HPM_P1;HPM_P2
2022/10/21 00:00:54;;;;;;;6.38;2.55;;;17.50;99.90;;;;;;5076264;28;20111;-70
2022/10/21 00:03:20;;;;;;;5.47;1.98;;;17.50;99.90;;;;;;5076120;28;20064;-70
2022/10/21 00:05:47;;;;;;;5.68;1.55;;;17.50;99.90;;;;;;5075907;28;20044;-69
2022/10/21 00:08:13;;;;;;;7.32;2.05;;;17.50;99.90;;;;;;5074596;28;20067;-68
2022/10/21 00:10:39;;;;;;;5.60;2.03;;;17.50;99.90;;;;;;5075911;28;20045;-70
2022/10/21 00:13:05;;;;;;;7.80;2.10;;;17.50;99.90;;;;;;5076050;28;20040;-70
2022/10/21 00:15:31;;;;;;;11.52;2.38;;;17.50;99.90;;;;;;5075938;28;20036;-69
2022/10/21 00:17:56;;;;;;;9.93;2.08;;;17.60;99.90;;;;;;5075678;28;20035;-70
2022/10/21 00:20:22;;;;;;;10.05;2.67;;;17.60;99.90;;;;;;5075549;28;20098;-70
2022/10/21 00:22:48;;;;;;;15.55;2.78;;;17.60;99.90;;;;;;5075812;28;20043;-66
2022/10/21 00:25:14;;;;;;;6.65;2.53;;;17.40;99.90;;;;;;5075925;28;20032;-69
2022/10/21 00:27:39;;;;;;;6.65;2.08;;;17.50;99.90;;;;;;5075732;28;20040;-67
2022/10/21 00:30:06;;;;;;;8.20;2.13;;;17.50;99.90;;;;;;5075508;28;20037;-70
2022/10/21 00:32:32;;;;;;;12.35;2.40;;;17.60;99.90;;;;;;5074869;28;20054;-70
2022/10/21 00:34:58;;;;;;;9.48;2.47;;;17.60;99.90;;;;;;5075395;28;20507;-70
2022/10/21 00:37:24;;;;;;;8.68;2.42;;;17.70;99.90;;;;;;5075475;28;20040;-70
2022/10/21 00:39:51;;;;;;;9.90;2.35;;;17.60;99.90;;;;;;5075298;28;20048;-70
2022/10/21 00:42:20;;;;;;;15.00;2.53;;;17.60;99.90;;;;;;5074613;28;20519;-70
2022/10/21 00:45:22;;;;;;;10.27;2.13;;;17.70;99.90;;;;;;5075410;28;20067;-70
2022/10/21 00:47:56;;;;;;;13.23;2.38;;;17.60;99.90;;;;;;5033128;28;20689;-70
2022/10/21 00:50:40;;;;;;;19.25;2.67;;;17.60;99.90;;;;;;5065344;28;20072;-70
2022/10/21 00:53:09;;;;;;;13.85;2.78;;;17.60;99.90;;;;;;5073838;28;20082;-70
2022/10/21 00:55:39;;;;;;;11.35;2.38;;;17.70;99.90;;;;;;5074860;28;20068;-70
2022/10/21 00:58:06;;;;;;;8.37;2.00;;;17.70;99.90;;;;;;5075146;28;20044;-69
2022/10/21 01:00:32;;;;;;;9.63;2.42;;;17.90;99.90;;;;;;5075253;28;20063;-70
2022/10/21 01:02:58;;;;;;;9.55;2.97;;;17.90;99.90;;;;;;5075036;28;20088;-67
2022/10/21 01:05:25;;;;;;;12.82;3.25;;;17.70;99.90;;;;;;5075018;28;20515;-69
2022/10/21 01:07:51;;;;;;;12.73;2.15;;;17.70;99.90;;;;;;5074967;28;20377;-69
2022/10/21 01:10:17;;;;;;;5.00;2.28;;;17.70;99.90;;;;;;5074849;28;20039;-69
2022/10/21 01:12:55;;;;;;;12.18;2.97;;;17.40;99.90;;;;;;5074845;28;20114;-70
2022/10/21 01:15:29;;;;;;;19.08;2.95;;;17.40;99.90;;;;;;5074053;28;20521;-68
2022/10/21 01:18:12;;;;;;;14.85;2.42;;;17.40;99.90;;;;;;5074761;28;20051;-69
2022/10/21 01:21:07;;;;;;;7.72;1.88;;;17.30;99.90;;;;;;5074614;28;20043;-69
2022/10/21 01:24:17;;;;;;;13.55;2.72;;;17.30;99.90;;;;;;5074563;28;20532;-69
2022/10/21 01:27:15;;;;;;;9.70;2.22;;;17.20;99.90;;;;;;5064202;28;20121;-68
2022/10/21 01:30:17;;;;;;;8.10;2.28;;;17.20;99.90;;;;;;5074410;28;20040;-69
2022/10/21 01:32:46;;;;;;;10.80;2.72;;;17.20;99.90;;;;;;5074191;28;20056;-69
2022/10/21 01:35:34;;;;;;;10.57;2.45;;;17.10;99.90;;;;;;5074276;28;20086;-70
2022/10/21 01:38:07;;;;;;;6.28;1.90;;;17.10;99.90;;;;;;5074230;28;20089;-70
2022/10/21 01:41:03;;;;;;;9.52;3.20;;;17.00;99.90;;;;;;5074508;28;20601;-70
2022/10/21 01:43:37;;;;;;;11.65;2.90;;;17.00;99.90;;;;;;5072938;28;20045;-69
2022/10/21 01:46:22;;;;;;;3.42;1.60;;;17.10;99.90;;;;;;5074244;28;20040;-69
2022/10/21 01:48:56;;;;;;;6.20;2.53;;;17.10;99.90;;;;;;5074263;28;20166;-66
2022/10/21 01:51:25;;;;;;;9.73;2.72;;;17.10;99.90;;;;;;5074261;28;20083;-69
2022/10/21 01:53:58;;;;;;;9.05;2.63;;;17.10;99.90;;;;;;5074132;28;20396;-69
2022/10/21 01:56:25;;;;;;;5.78;1.52;;;16.90;99.90;;;;;;5074174;28;20032;-68
2022/10/21 01:58:52;;;;;;;11.10;2.05;;;16.50;99.90;;;;;;5074221;28;20078;-70
2022/10/21 02:01:19;;;;;;;7.70;2.15;;;16.60;99.90;;;;;;5074078;28;20078;-66
2022/10/21 02:03:49;;;;;;;15.95;2.88;;;16.50;99.90;;;;;;5074173;28;20033;-69
2022/10/21 02:06:14;;;;;;;11.88;2.22;;;16.30;99.90;;;;;;5073842;28;20121;-68
2022/10/21 02:08:42;;;;;;;15.00;2.97;;;16.20;99.90;;;;;;5073957;28;20507;-69
2022/10/21 02:11:10;;;;;;;7.50;2.70;;;16.20;99.90;;;;;;5074044;28;20543;-70
2022/10/21 02:13:56;;;;;;;8.43;2.95;;;16.20;99.90;;;;;;5074075;28;20488;-69
2022/10/21 02:16:29;;;;;;;7.35;2.60;;;16.10;99.90;;;;;;5073883;28;20040;-70
2022/10/21 02:18:56;;;;;;;7.38;2.25;;;16.00;99.90;;;;;;5073687;28;20039;-70
2022/10/21 02:21:24;;;;;;;13.70;3.25;;;16.00;99.90;;;;;;5073702;28;20425;-69
2022/10/21 02:23:57;;;;;;;14.23;3.55;;;16.00;99.90;;;;;;5073945;28;20119;-70
2022/10/21 02:26:26;;;;;;;10.23;2.55;;;15.90;99.90;;;;;;5073233;28;20036;-70
2022/10/21 02:28:54;;;;;;;12.73;3.38;;;15.80;99.90;;;;;;5072466;28;20130;-69
2022/10/21 02:31:41;;;;;;;8.75;2.72;;;15.70;99.90;;;;;;5073457;28;20447;-70
2022/10/21 02:34:13;;;;;;;15.93;2.95;;;15.70;99.90;;;;;;5065016;28;20083;-69
2022/10/21 02:36:53;;;;;;;12.65;3.28;;;15.80;99.90;;;;;;5057204;28;20066;-70
2022/10/21 02:39:28;;;;;;;13.27;2.85;;;15.80;99.90;;;;;;5073520;28;20396;-70
2022/10/21 02:41:56;;;;;;;12.15;2.90;;;15.90;99.90;;;;;;5073031;28;20036;-70
2022/10/21 02:44:22;;;;;;;8.55;2.60;;;15.90;99.90;;;;;;5070391;28;20036;-69
2022/10/21 02:46:48;;;;;;;15.85;4.22;;;15.80;99.90;;;;;;5071365;28;20040;-69
2022/10/21 02:49:14;;;;;;;17.42;3.53;;;15.80;99.90;;;;;;5072735;28;20033;-69
2022/10/21 02:51:41;;;;;;;12.15;3.20;;;15.70;99.90;;;;;;5073541;28;20051;-66
2022/10/21 02:54:07;;;;;;;9.55;3.17;;;15.70;99.90;;;;;;5073241;28;20033;-66
2022/10/21 02:56:34;;;;;;;7.13;2.83;;;15.70;99.90;;;;;;5073138;28;20044;-70
2022/10/21 02:59:00;;;;;;;12.27;2.72;;;15.70;99.90;;;;;;5073547;28;20032;-70
2022/10/21 03:01:25;;;;;;;12.20;2.63;;;15.70;99.90;;;;;;5073600;28;20040;-70
2022/10/21 03:03:51;;;;;;;11.95;3.28;;;15.70;99.90;;;;;;5073509;28;20393;-70
2022/10/21 03:06:17;;;;;;;7.93;2.45;;;15.70;99.90;;;;;;5075869;28;20044;-70
2022/10/21 03:08:43;;;;;;;9.50;3.00;;;15.70;99.90;;;;;;5077149;28;20037;-69
2022/10/21 03:11:09;;;;;;;11.70;2.45;;;15.80;99.90;;;;;;5076932;28;20052;-67
2022/10/21 03:13:34;;;;;;;13.85;2.30;;;15.90;99.90;;;;;;5077201;28;20044;-70
2022/10/21 03:16:00;;;;;;;8.85;3.00;;;15.70;99.90;;;;;;5077110;28;20099;-70
2022/10/21 03:18:26;;;;;;;12.93;3.08;;;15.60;99.90;;;;;;5077100;28;20451;-70
2022/10/21 03:20:52;;;;;;;14.05;3.45;;;15.60;99.90;;;;;;5076978;28;20491;-70
2022/10/21 03:23:18;;;;;;;11.13;2.60;;;15.60;99.90;;;;;;5075617;28;20071;-66
2022/10/21 03:25:44;;;;;;;13.35;3.15;;;15.50;99.90;;;;;;5076806;28;20086;-70
2022/10/21 03:28:10;;;;;;;9.25;2.80;;;15.50;99.90;;;;;;5076906;28;20083;-66
2022/10/21 03:30:36;;;;;;;8.50;3.13;;;15.50;99.90;;;;;;5076852;28;20036;-68
2022/10/21 03:33:02;;;;;;;9.85;3.25;;;15.50;99.90;;;;;;5076795;28;20500;-70
2022/10/21 03:35:28;;;;;;;12.88;3.28;;;15.50;99.90;;;;;;5076876;28;20120;-66
2022/10/21 03:37:53;;;;;;;8.57;2.67;;;15.60;99.90;;;;;;5076552;28;20049;-69
2022/10/21 03:40:19;;;;;;;11.52;3.70;;;15.70;99.90;;;;;;5075346;28;20132;-69
2022/10/21 03:42:45;;;;;;;12.18;2.72;;;15.70;99.90;;;;;;5076827;28;20388;-69
2022/10/21 03:45:11;;;;;;;17.20;3.58;;;15.80;99.90;;;;;;5076635;28;20040;-70
2022/10/21 03:47:37;;;;;;;16.88;3.20;;;15.80;99.90;;;;;;5076581;28;20047;-66
2022/10/21 03:50:03;;;;;;;13.57;3.60;;;15.80;99.90;;;;;;5075162;28;20400;-69
2022/10/21 03:52:29;;;;;;;9.25;2.58;;;15.70;99.90;;;;;;5075647;28;20044;-69
2022/10/21 03:54:54;;;;;;;9.27;3.20;;;15.70;99.90;;;;;;5076236;28;20043;-70
2022/10/21 03:57:20;;;;;;;5.03;1.75;;;15.70;99.90;;;;;;5075005;28;20040;-66
2022/10/21 03:59:46;;;;;;;10.88;3.00;;;15.70;99.90;;;;;;5075857;28;20495;-70
2022/10/21 04:02:12;;;;;;;8.73;2.95;;;15.50;99.90;;;;;;5075178;28;20495;-70
2022/10/21 04:04:37;;;;;;;16.80;3.63;;;15.50;99.90;;;;;;5075585;28;20040;-70
2022/10/21 04:07:03;;;;;;;14.23;3.47;;;15.50;99.90;;;;;;5075248;28;20036;-70
2022/10/21 04:09:29;;;;;;;10.98;2.90;;;15.50;99.90;;;;;;5074524;28;20044;-70
2022/10/21 04:11:54;;;;;;;10.65;3.20;;;15.50;99.90;;;;;;5074761;28;20048;-70
2022/10/21 04:14:20;;;;;;;10.07;3.05;;;15.60;99.90;;;;;;5075915;28;20504;-69
2022/10/21 04:16:46;;;;;;;10.82;2.70;;;15.70;99.90;;;;;;5074610;28;20089;-70
2022/10/21 04:19:16;;;;;;;7.47;2.28;;;15.60;99.90;;;;;;5075910;28;20028;-69
2022/10/21 04:21:43;;;;;;;6.63;2.25;;;15.70;99.90;;;;;;5074625;28;20051;-70
2022/10/21 04:24:09;;;;;;;8.50;2.60;;;15.70;99.90;;;;;;5075907;28;20083;-70
2022/10/21 04:26:34;;;;;;;8.35;2.22;;;15.80;99.90;;;;;;5075664;28;20542;-70
2022/10/21 04:29:00;;;;;;;14.88;3.60;;;15.80;99.90;;;;;;5075822;28;20121;-68
2022/10/21 04:31:26;;;;;;;9.82;2.58;;;15.80;99.90;;;;;;5075593;28;20068;-70
2022/10/21 04:33:52;;;;;;;6.97;2.05;;;15.70;99.90;;;;;;5075773;28;20060;-70
2022/10/21 04:36:18;;;;;;;6.15;2.13;;;15.70;99.90;;;;;;5072055;28;20029;-67
2022/10/21 04:38:43;;;;;;;7.00;2.65;;;15.70;99.90;;;;;;5072227;28;20048;-69
2022/10/21 04:41:09;;;;;;;7.93;2.78;;;15.70;99.90;;;;;;5071750;28;20040;-67
2022/10/21 04:43:36;;;;;;;12.13;2.65;;;15.80;99.90;;;;;;5073298;28;20044;-70
2022/10/21 04:46:02;;;;;;;8.07;2.38;;;15.80;99.90;;;;;;5072355;28;20475;-68
2022/10/21 04:48:28;;;;;;;18.95;2.47;;;16.20;99.90;;;;;;5073463;28;20068;-70
2022/10/21 04:50:54;;;;;;;6.95;2.20;;;15.80;99.90;;;;;;5073343;28;20139;-69
2022/10/21 04:53:21;;;;;;;6.78;2.35;;;15.90;99.90;;;;;;5075251;28;20075;-69
2022/10/21 04:55:53;;;;;;;8.32;2.28;;;15.80;99.90;;;;;;5073791;28;20447;-70
2022/10/21 04:58:20;;;;;;;8.55;2.63;;;16.00;99.90;;;;;;5057319;28;20036;-70
2022/10/21 05:00:46;;;;;;;7.93;1.80;;;15.90;99.90;;;;;;5075162;28;20068;-70
2022/10/21 05:03:12;;;;;;;3.03;1.85;;;15.90;99.90;;;;;;5075051;28;20068;-67
2022/10/21 05:05:38;;;;;;;5.05;1.58;;;16.00;99.90;;;;;;5074503;28;20032;-70
2022/10/21 05:08:04;;;;;;;6.28;2.15;;;16.00;99.90;;;;;;5074705;28;20043;-70
2022/10/21 05:10:30;;;;;;;3.72;1.23;;;16.00;99.90;;;;;;5073606;28;20043;-68
2022/10/21 05:12:57;;;;;;;6.20;1.92;;;15.90;99.90;;;;;;5074849;28;20500;-70
2022/10/21 05:15:23;;;;;;;7.55;1.48;;;15.90;99.90;;;;;;5073373;28;20090;-70
2022/10/21 05:17:50;;;;;;;9.27;1.85;;;15.90;99.90;;;;;;5074404;28;20451;-67
2022/10/21 05:20:15;;;;;;;4.20;1.55;;;15.90;99.90;;;;;;5074491;28;20388;-70
2022/10/21 05:22:41;;;;;;;4.20;2.10;;;15.90;99.90;;;;;;5074567;28;20029;-70
2022/10/21 05:25:07;;;;;;;4.20;1.80;;;15.90;99.90;;;;;;5074511;28;20033;-70
2022/10/21 05:27:33;;;;;;;5.60;1.67;;;15.90;99.90;;;;;;5074363;28;20032;-70
2022/10/21 05:29:59;;;;;;;2.50;1.38;;;16.00;99.90;;;;;;5074625;28;20131;-67
2022/10/21 05:33:17;;;;;;;6.25;2.10;;;16.00;99.90;;;;;;5073734;28;20530;-70
2022/10/21 05:35:43;;;;;;;8.10;2.00;;;16.00;99.90;;;;;;5074498;28;20033;-70
2022/10/21 05:38:09;;;;;;;14.15;2.28;;;15.80;99.90;;;;;;5072824;28;20119;-69
2022/10/21 05:40:35;;;;;;;28.88;2.90;;;15.70;99.90;;;;;;5074034;28;20515;-70
2022/10/21 05:43:01;;;;;;;7.75;3.30;;;15.50;99.90;;;;;;5074126;28;20048;-70
2022/10/21 05:45:27;;;;;;;7.72;2.13;;;15.50;99.90;;;;;;5074325;28;20531;-69
2022/10/21 05:47:52;;;;;;;8.73;2.00;;;15.50;99.90;;;;;;5072994;28;20398;-70
2022/10/21 05:50:18;;;;;;;8.20;2.20;;;15.50;99.90;;;;;;5074078;28;20059;-68
2022/10/21 05:52:44;;;;;;;5.25;2.10;;;15.60;99.90;;;;;;5072853;28;20052;-71
2022/10/21 05:55:10;;;;;;;7.93;1.98;;;15.70;99.90;;;;;;5071835;28;20040;-70
2022/10/21 05:57:37;;;;;;;8.75;1.90;;;15.80;99.90;;;;;;5072255;28;20028;-70
2022/10/21 06:00:05;;;;;;;4.57;1.73;;;15.80;99.90;;;;;;5072897;28;20135;-69
2022/10/21 06:02:30;;;;;;;10.48;1.83;;;16.00;99.90;;;;;;5073108;28;20407;-70
2022/10/21 06:04:56;;;;;;;6.32;2.70;;;16.00;99.90;;;;;;5073160;28;20045;-70
2022/10/21 06:07:22;;;;;;;3.33;1.60;;;15.80;99.90;;;;;;5073867;28;20559;-69
2022/10/21 06:09:47;;;;;;;9.90;2.38;;;15.90;99.90;;;;;;5072133;28;20040;-70
2022/10/21 06:12:13;;;;;;;8.20;3.17;;;16.00;99.90;;;;;;5073617;28;20059;-67
2022/10/21 06:14:39;;;;;;;4.22;1.80;;;16.00;99.90;;;;;;5073773;28;20040;-70
2022/10/21 06:17:04;;;;;;;8.32;1.90;;;16.00;99.90;;;;;;5072506;28;20484;-68
2022/10/21 06:19:30;;;;;;;6.13;1.95;;;16.10;99.90;;;;;;5072389;28;20028;-70
2022/10/21 06:21:57;;;;;;;7.55;2.65;;;16.10;99.90;;;;;;5072507;28;20045;-70
2022/10/21 06:24:23;;;;;;;4.45;1.42;;;16.20;99.90;;;;;;5073317;28;20102;-70
2022/10/21 06:26:52;;;;;;;4.90;1.73;;;16.30;99.90;;;;;;5073151;28;20036;-70
2022/10/21 06:29:18;;;;;;;5.18;1.33;;;16.30;99.90;;;;;;5073241;28;20037;-70
2022/10/21 06:31:44;;;;;;;5.15;1.55;;;16.30;99.90;;;;;;5072828;28;20084;-70
2022/10/21 06:34:10;;;;;;;7.10;1.70;;;16.20;99.90;;;;;;5074078;28;20028;-70
2022/10/21 06:36:39;;;;;;;5.60;1.80;;;16.10;99.90;;;;;;5073833;28;20504;-67
2022/10/21 06:39:05;;;;;;;3.70;1.60;;;16.20;99.90;;;;;;5073526;28;20123;-68
2022/10/21 06:41:31;;;;;;;3.95;1.88;;;16.20;99.90;;;;;;5077099;28;20046;-70
2022/10/21 06:43:56;;;;;;;4.97;1.95;;;16.20;99.90;;;;;;5077192;28;20040;-70
2022/10/21 06:46:22;;;;;;;4.70;1.63;;;16.30;99.90;;;;;;5077875;28;20136;-70
2022/10/21 06:48:48;;;;;;;2.85;1.48;;;16.40;99.90;;;;;;5077804;28;20052;-70
2022/10/21 06:51:21;;;;;;;4.70;1.67;;;16.40;99.90;;;;;;5070021;28;20555;-70
2022/10/21 06:53:51;;;;;;;6.13;1.88;;;16.50;99.90;;;;;;5055884;28;20025;-68
2022/10/21 06:56:18;;;;;;;4.38;1.65;;;16.60;99.90;;;;;;5056157;28;20040;-70
2022/10/21 06:58:46;;;;;;;4.40;1.70;;;16.70;99.90;;;;;;5057670;28;20045;-67
2022/10/21 07:01:19;;;;;;;6.65;2.03;;;16.70;99.90;;;;;;5057412;28;20047;-70
2022/10/21 07:03:45;;;;;;;5.15;1.48;;;16.70;99.90;;;;;;5057390;28;20106;-68
2022/10/21 07:06:11;;;;;;;4.68;1.67;;;16.70;99.90;;;;;;5057428;28;20076;-70
2022/10/21 07:08:36;;;;;;;8.27;1.83;;;16.70;99.90;;;;;;5057207;28;20089;-70
2022/10/21 07:11:03;;;;;;;7.28;1.80;;;16.70;99.90;;;;;;5057367;28;20080;-69
2022/10/21 07:13:29;;;;;;;3.28;1.90;;;16.70;99.90;;;;;;5057238;28;20127;-71
2022/10/21 07:16:03;;;;;;;4.43;1.83;;;16.70;99.90;;;;;;5055930;28;20072;-68
2022/10/21 07:18:29;;;;;;;4.90;1.80;;;16.70;99.90;;;;;;5057277;28;20041;-69
2022/10/21 07:20:55;;;;;;;4.68;2.00;;;16.80;99.90;;;;;;5056935;28;20044;-70
2022/10/21 07:23:21;;;;;;;5.35;2.20;;;16.80;99.90;;;;;;5056892;28;20044;-70
2022/10/21 07:25:46;;;;;;;7.25;2.22;;;16.80;99.90;;;;;;5056884;28;20500;-70
2022/10/21 07:28:12;;;;;;;3.38;2.53;;;16.80;99.90;;;;;;5056882;28;20040;-69
2022/10/21 07:30:43;;;;;;;10.60;1.95;;;16.80;99.90;;;;;;5055612;28;20037;-68
2022/10/21 07:33:09;;;;;;;6.38;1.70;;;16.80;99.90;;;;;;5056997;28;20136;-70
2022/10/21 07:35:35;;;;;;;7.95;1.70;;;16.80;99.90;;;;;;5056596;28;20036;-70
2022/10/21 07:38:01;;;;;;;5.68;1.90;;;16.80;99.90;;;;;;5056478;28;20483;-70
2022/10/21 07:40:27;;;;;;;5.28;1.80;;;16.90;99.90;;;;;;5055284;28;20075;-70
2022/10/21 07:42:54;;;;;;;5.25;2.40;;;16.90;99.90;;;;;;5056656;28;20049;-70
2022/10/21 07:45:19;;;;;;;8.45;2.13;;;16.90;99.90;;;;;;5056672;28;20499;-70
2022/10/21 07:47:46;;;;;;;4.15;1.85;;;16.90;99.90;;;;;;5055322;28;20120;-70
2022/10/21 07:50:12;;;;;;;4.00;1.80;;;17.00;99.90;;;;;;5056146;28;20114;-70
2022/10/21 07:52:44;;;;;;;6.45;1.73;;;17.00;99.90;;;;;;5056434;28;20504;-70
2022/10/21 07:55:11;;;;;;;5.57;1.38;;;16.90;99.90;;;;;;5055113;28;20041;-70
2022/10/21 07:57:38;;;;;;;6.00;1.60;;;16.90;99.90;;;;;;5056371;28;20037;-70
2022/10/21 08:00:05;;;;;;;4.13;1.23;;;16.80;99.90;;;;;;5056190;28;20485;-68
2022/10/21 08:02:30;;;;;;;2.70;1.50;;;16.90;99.90;;;;;;5056248;28;20037;-70
2022/10/21 08:04:56;;;;;;;7.47;2.00;;;16.90;99.90;;;;;;5056243;28;20048;-70
2022/10/21 08:07:22;;;;;;;7.68;1.80;;;16.90;99.90;;;;;;5056399;28;20036;-70
2022/10/21 08:09:48;;;;;;;6.45;1.90;;;17.00;99.90;;;;;;5056046;28;20041;-71
2022/10/21 08:12:14;;;;;;;3.35;1.85;;;17.10;99.90;;;;;;5056001;28;20144;-68
2022/10/21 08:14:39;;;;;;;6.68;1.65;;;17.10;99.90;;;;;;5056084;28;20068;-70
2022/10/21 08:17:05;;;;;;;2.85;1.63;;;17.10;99.90;;;;;;5055970;28;20448;-68
2022/10/21 08:19:31;;;;;;;7.55;1.80;;;17.10;99.90;;;;;;5056059;28;20037;-70
2022/10/21 08:21:58;;;;;;;4.50;2.10;;;17.20;99.90;;;;;;5056176;28;20032;-69
2022/10/21 08:24:24;;;;;;;5.35;2.05;;;17.10;99.90;;;;;;5055976;28;20397;-68
2022/10/21 08:26:50;;;;;;;5.70;1.67;;;17.10;99.90;;;;;;5055972;28;20085;-69
2022/10/21 08:29:16;;;;;;;2.13;1.30;;;17.20;99.90;;;;;;5055950;28;20037;-68
2022/10/21 08:31:42;;;;;;;5.70;1.63;;;17.20;99.90;;;;;;5054710;28;20405;-68
2022/10/21 08:34:08;;;;;;;3.45;1.38;;;17.30;99.90;;;;;;5055800;28;20044;-68
2022/10/21 08:36:35;;;;;;;4.03;1.77;;;17.40;99.90;;;;;;5055727;28;20048;-67
2022/10/21 08:39:01;;;;;;;2.40;1.55;;;17.40;99.90;;;;;;5055768;28;20044;-70
2022/10/21 08:41:29;;;;;;;4.75;1.67;;;17.50;99.90;;;;;;5055700;28;20041;-70
2022/10/21 08:44:09;;;;;;;5.22;2.28;;;17.50;99.90;;;;;;5055547;28;20047;-67
2022/10/21 08:46:58;;;;;;;4.63;1.67;;;17.50;99.90;;;;;;5055406;28;20040;-68
2022/10/21 08:49:29;;;;;;;3.53;1.80;;;17.70;99.90;;;;;;5051788;28;20102;-68
2022/10/21 08:52:33;;;;;;;8.82;1.80;;;17.80;99.90;;;;;;5055236;28;20443;-70
2022/10/21 08:55:01;;;;;;;5.00;1.92;;;17.80;99.90;;;;;;5055475;28;20036;-70
2022/10/21 08:57:30;;;;;;;2.95;1.60;;;18.00;99.90;;;;;;5055383;28;20045;-70
2022/10/21 08:59:56;;;;;;;3.67;1.48;;;18.30;99.90;;;;;;5055210;28;20068;-70
2022/10/21 09:02:47;;;;;;;6.43;2.15;;;18.40;99.90;;;;;;5054585;28;20539;-70
2022/10/21 09:05:31;;;;;;;2.45;1.73;;;18.60;99.90;;;;;;5053784;28;20493;-68
2022/10/21 09:07:57;;;;;;;3.03;1.65;;;18.50;99.90;;;;;;5055093;28;20044;-70
2022/10/21 09:10:44;;;;;;;4.68;1.70;;;18.80;99.90;;;;;;5053675;28;20580;-70
2022/10/21 09:13:19;;;;;;;5.82;1.50;;;19.00;99.90;;;;;;5054803;28;20036;-70
2022/10/21 09:16:04;;;;;;;6.13;1.92;;;19.40;99.90;;;;;;5054664;28;20126;-69
2022/10/21 09:18:36;;;;;;;4.78;1.77;;;19.40;99.90;;;;;;5054785;28;20044;-70
2022/10/21 09:21:30;;;;;;;8.90;1.80;;;19.10;99.90;;;;;;5054662;28;20048;-70
2022/10/21 09:24:03;;;;;;;5.65;1.75;;;19.10;99.90;;;;;;5064711;28;20078;-70
2022/10/21 09:26:40;;;;;;;4.13;1.90;;;19.10;99.90;;;;;;5074769;28;20040;-70
2022/10/21 09:29:21;;;;;;;4.63;1.75;;;19.30;99.90;;;;;;5073327;28;20040;-67
2022/10/21 09:31:47;;;;;;;;;;;19.30;99.90;;;;;;5074968;28;20112;-70
2022/10/21 09:34:28;;;;;;;8.82;2.40;;;19.30;99.90;;;;;;5074348;28;19912;-70
2022/10/21 09:36:56;;;;;;;7.25;2.08;;;19.20;99.90;;;;;;5074385;28;20496;-70
2022/10/21 09:39:31;;;;;;;6.60;1.98;;;19.30;99.90;;;;;;5074278;28;20107;-69
2022/10/21 09:41:58;;;;;;;11.45;2.20;;;19.40;99.90;;;;;;5074288;28;20050;-69
2022/10/21 09:44:25;;;;;;;7.63;2.25;;;19.50;99.90;;;;;;5074230;28;20107;-69
2022/10/21 09:46:52;;;;;;;10.55;1.98;;;19.30;99.90;;;;;;5072758;28;20046;-70
2022/10/21 09:49:29;;;;;;;7.65;2.55;;;19.40;99.90;;;;;;5074360;28;20040;-70
2022/10/21 09:51:58;;;;;;;7.70;2.05;;;19.20;99.90;;;;;;5072945;28;20063;-70
2022/10/21 09:54:28;;;;;;;6.65;2.10;;;19.90;99.90;;;;;;5074268;28;20131;-70
2022/10/21 09:57:14;;;;;;;6.95;2.33;;;19.90;99.90;;;;;;5074333;28;20392;-69
2022/10/21 10:00:01;;;;;;;4.72;1.65;;;19.90;99.90;;;;;;5072843;28;20071;-70
2022/10/21 10:02:37;;;;;;;4.75;1.83;;;20.10;99.90;;;;;;5073979;28;20036;-69
2022/10/21 10:05:55;;;;;;;4.57;1.70;;;20.00;99.90;;;;;;5074170;28;20123;-70
2022/10/21 10:08:29;;;;;;;9.35;2.35;;;20.00;99.90;;;;;;5050979;28;20051;-70
2022/10/21 10:11:07;;;;;;;8.18;2.17;;;19.80;99.90;;;;;;5073933;28;20036;-70
2022/10/21 10:13:33;;;;;;;3.78;1.77;;;19.70;99.90;;;;;;5074069;28;20129;-70
2022/10/21 10:16:13;;;;;;;7.00;2.08;;;19.60;99.90;;;;;;5073934;28;20496;-70
2022/10/21 10:18:40;;;;;;;7.45;1.95;;;19.50;99.90;;;;;;5072734;28;20048;-70
2022/10/21 10:21:09;;;;;;;8.60;2.08;;;19.60;99.90;;;;;;5074024;28;20032;-68
2022/10/21 10:23:55;;;;;;;3.92;1.77;;;19.60;99.90;;;;;;5073926;28;20037;-69
2022/10/21 10:26:30;;;;;;;5.28;2.10;;;19.60;99.90;;;;;;5073811;28;20040;-70
2022/10/21 10:29:22;;;;;;;3.72;1.63;;;19.50;99.90;;;;;;5073896;28;20074;-70
2022/10/21 10:31:57;;;;;;;5.47;2.22;;;19.70;99.90;;;;;;5071734;28;20068;-70
2022/10/21 10:34:36;;;;;;;7.30;2.15;;;19.60;99.90;;;;;;5073631;28;20040;-69
2022/10/21 10:37:17;;;;;;;6.53;2.55;;;19.50;99.90;;;;;;5072067;28;20403;-70
2022/10/21 10:39:50;;;;;;;9.30;3.20;;;19.50;99.90;;;;;;5073958;28;20037;-69
2022/10/21 10:42:25;;;;;;;8.85;2.85;;;19.40;99.90;;;;;;5073828;28;20459;-69
2022/10/21 10:44:58;;;;;;;9.00;2.85;;;19.40;99.90;;;;;;5073602;28;20059;-70
2022/10/21 10:47:30;;;;;;;7.53;2.95;;;19.30;99.90;;;;;;5073600;28;20443;-70
2022/10/21 10:49:56;;;;;;;8.38;2.72;;;19.30;99.90;;;;;;5073670;28;20124;-69
2022/10/21 10:52:23;;;;;;;7.10;3.15;;;19.30;99.90;;;;;;5072337;28;20567;-70
2022/10/21 10:55:10;;;;;;;16.02;3.85;;;19.20;99.90;;;;;;5070653;28;20036;-69
2022/10/21 10:57:39;;;;;;;12.43;3.17;;;19.10;99.90;;;;;;5057906;28;20115;-70
2022/10/21 11:00:17;;;;;;;8.85;3.60;;;19.10;99.90;;;;;;5052659;28;20040;-68
2022/10/21 11:03:06;;;;;;;7.32;3.15;;;19.20;99.90;;;;;;5053573;28;20049;-68
2022/10/21 11:05:49;;;;;;;10.85;3.20;;;19.20;99.90;;;;;;5052346;28;20040;-70
2022/10/21 11:08:29;;;;;;;5.88;2.90;;;19.30;99.90;;;;;;5053479;28;20443;-70
2022/10/21 11:11:04;;;;;;;6.57;3.67;;;19.10;99.90;;;;;;5053328;28;20040;-68
2022/10/21 11:13:33;;;;;;;8.25;3.20;;;19.10;99.90;;;;;;5053372;28;20510;-70
2022/10/21 11:16:14;;;;;;;11.00;3.45;;;19.10;99.90;;;;;;5051942;28;20038;-70
2022/10/21 11:18:47;;;;;;;7.72;3.05;;;19.10;99.90;;;;;;5052286;28;20178;-70
2022/10/21 11:21:37;;;;;;;8.05;3.00;;;19.10;99.90;;;;;;5052059;28;20037;-69
2022/10/21 11:24:25;;;;;;;8.98;3.22;;;19.10;99.90;;;;;;5052165;28;20086;-70
2022/10/21 11:27:15;;;;;;;9.48;3.97;;;19.10;99.90;;;;;;5056160;28;20044;-69
2022/10/21 11:29:49;;;;;;;7.50;2.90;;;19.20;99.90;;;;;;5057071;28;20037;-70
2022/10/21 11:32:52;;;;;;;8.15;4.13;;;19.10;99.90;;;;;;5056662;28;20402;-70
2022/10/21 11:35:40;;;;;;;5.78;2.63;;;19.10;99.90;;;;;;5056507;28;20033;-70
2022/10/21 11:38:29;;;;;;;8.30;3.20;;;19.10;99.90;;;;;;5056795;28;20496;-68
2022/10/21 11:41:17;;;;;;;10.60;3.33;;;19.20;99.90;;;;;;5055424;28;20408;-68
2022/10/21 11:44:11;;;;;;;7.45;2.70;;;19.20;99.90;;;;;;5056692;28;20044;-70
2022/10/21 11:47:04;;;;;;;9.10;2.72;;;19.20;99.90;;;;;;5056589;28;20086;-68
2022/10/21 11:49:54;;;;;;;10.10;3.63;;;19.10;99.90;;;;;;5055368;28;20040;-70
2022/10/21 11:52:52;;;;;;;7.55;3.13;;;19.20;99.90;;;;;;5055283;28;20049;-69
2022/10/21 11:55:33;;;;;;;5.93;2.92;;;19.30;99.90;;;;;;5044211;28;20361;-70
2022/10/21 11:58:20;;;;;;;9.48;2.88;;;19.20;99.90;;;;;;5056374;28;20037;-69
2022/10/21 12:00:49;;;;;;;7.35;2.85;;;19.20;99.90;;;;;;5054840;28;20090;-70
2022/10/21 12:03:57;;;;;;;6.65;2.80;;;19.10;99.90;;;;;;5054178;28;20049;-69
2022/10/21 12:06:29;;;;;;;10.57;2.65;;;19.10;99.90;;;;;;5056247;28;20114;-70
2022/10/21 12:09:21;;;;;;;6.22;2.10;;;19.10;99.90;;;;;;5056191;28;20119;-69
2022/10/21 12:12:05;;;;;;;9.40;2.15;;;19.00;99.90;;;;;;5055534;28;20052;-70
2022/10/21 12:14:42;;;;;;;6.25;2.10;;;19.10;99.90;;;;;;5056178;28;20044;-70
2022/10/21 12:17:15;;;;;;;5.50;1.70;;;19.10;99.90;;;;;;5056264;28;20041;-69
2022/10/21 12:19:46;;;;;;;3.50;2.20;;;19.10;99.90;;;;;;5054707;28;20052;-70
2022/10/21 12:22:12;;;;;;;5.55;2.72;;;19.00;99.90;;;;;;5055945;28;20412;-70
2022/10/21 12:24:38;;;;;;;4.78;2.60;;;19.00;99.90;;;;;;5055949;28;20132;-69
2022/10/21 12:27:13;;;;;;;4.43;1.92;;;19.00;99.90;;;;;;5055904;28;20449;-69
2022/10/21 12:30:11;;;;;;;3.33;1.88;;;19.00;99.90;;;;;;5055871;28;20043;-69
2022/10/21 12:32:40;;;;;;;4.95;2.15;;;18.90;99.90;;;;;;5054364;28;20044;-70
2022/10/21 12:35:15;;;;;;;3.03;1.60;;;19.00;99.90;;;;;;5055737;28;20397;-69
2022/10/21 12:38:04;;;;;;;6.10;1.80;;;18.90;99.90;;;;;;5054498;28;20053;-69
2022/10/21 12:40:31;;;;;;;6.97;2.00;;;18.90;99.90;;;;;;5055715;28;20044;-69
2022/10/21 12:43:21;;;;;;;2.13;1.88;;;18.90;99.90;;;;;;5055584;28;20043;-69
2022/10/21 12:46:05;;;;;;;3.80;1.50;;;18.80;99.90;;;;;;5054223;28;20083;-70
2022/10/21 12:48:47;;;;;;;3.55;1.77;;;18.80;99.90;;;;;;5055444;28;20102;-70
2022/10/21 12:51:25;;;;;;;5.97;2.05;;;18.80;99.90;;;;;;5055437;28;20072;-69
2022/10/21 12:53:56;;;;;;;5.82;1.85;;;18.80;99.90;;;;;;5054035;28;20045;-70
2022/10/21 12:56:37;;;;;;;3.22;1.73;;;18.70;99.90;;;;;;5055206;28;20029;-69
2022/10/21 12:59:05;;;;;;;3.72;1.95;;;18.70;99.90;;;;;;5055239;28;20493;-69
2022/10/21 13:01:34;;;;;;;2.65;1.50;;;18.60;99.90;;;;;;5055118;28;20044;-70
2022/10/21 13:04:00;;;;;;;5.88;1.55;;;18.70;99.90;;;;;;5053839;28;20128;-70
2022/10/21 13:06:55;;;;;;;4.95;2.08;;;18.70;99.90;;;;;;5055279;28;20068;-70
2022/10/21 13:09:41;;;;;;;3.85;1.75;;;18.70;99.90;;;;;;5055260;28;20175;-70